Akunia, Virginia
Current Conditions -  °F | °C
As of 1:35 PM on Thursday 30 Oct 2014 (Local Time) from KFVX Reporting Station
Broken Clouds Broken Clouds  
Wind Chill: 17°   Ceiling: 4800
Heat Index: 17°   Visibility: 10mi
Dew Point:   Wind: 9mph
Humidity: 42%   Direction: 20°NNE
Pressure: 30.02"   Gusts: NA
Location:  37.6681°N, 78.4131°W
Report Text: KFVX 301735Z AUTO 02008KT 010V100 10SM BKN048 17/04 A3002 RMK AO2
Loading
Personal Weather Stations






























Interactive Weather Map
Tropical Storm Tracking
New forecast layout! Learn more

10-Day Weather Forecast

Advertisements
Track Severe Weather on mobile